createdAt,value
2022-11-23T00:00:38.640Z,24.50
2022-11-23T00:03:30.717Z,25.80
2022-11-23T00:06:04.819Z,26.70
2022-11-23T00:08:44.074Z,26.10
2022-11-23T00:11:17.750Z,27.80
2022-11-23T00:13:51.115Z,24.40
2022-11-23T00:17:40.625Z,29.30
2022-11-23T00:30:42.466Z,28.20
2022-11-23T00:33:18.272Z,29.70
2022-11-23T00:36:56.284Z,34.00
2022-11-23T00:39:29.085Z,29.10
2022-11-23T00:56:23.742Z,30.30
2022-11-23T00:58:58.742Z,30.50
2022-11-23T01:11:03.958Z,35.20
2022-11-23T01:14:25.829Z,35.60
2022-11-23T01:17:22.243Z,30.70
2022-11-23T01:19:54.528Z,31.40
2022-11-23T01:27:08.130Z,33.90
2022-11-23T01:34:34.363Z,33.90
2022-11-23T01:37:25.351Z,34.10
2022-11-23T01:39:57.874Z,32.90
2022-11-23T01:42:58.257Z,31.90
2022-11-23T01:50:01.704Z,32.20
2022-11-23T01:52:34.123Z,33.70
2022-11-23T01:55:13.574Z,31.70
2022-11-23T01:57:47.079Z,29.00
2022-11-23T02:12:23.447Z,36.10
2022-11-23T02:14:55.764Z,43.50
2022-11-23T02:17:28.250Z,36.10
2022-11-23T02:33:52.022Z,27.90
2022-11-23T02:41:03.233Z,26.20
2022-11-23T02:43:35.871Z,26.60
2022-11-23T02:46:15.459Z,27.20
2022-11-23T02:48:47.997Z,28.90
2022-11-23T02:51:27.256Z,28.70
2022-11-23T02:53:59.660Z,30.30
2022-11-23T02:56:38.251Z,33.00
2022-11-23T02:59:10.699Z,29.50
2022-11-23T03:01:49.418Z,35.50
2022-11-23T03:04:27.340Z,36.50
2022-11-23T03:16:31.598Z,35.40
2022-11-23T03:19:11.395Z,32.10
2022-11-23T03:26:34.541Z,42.50
2022-11-23T03:29:51.093Z,35.70
2022-11-23T03:32:28.498Z,53.00
2022-11-23T03:35:49.762Z,35.80
2022-11-23T03:39:05.346Z,39.60
2022-11-23T03:46:13.472Z,32.80
2022-11-23T03:48:45.807Z,30.20
2022-11-23T03:56:05.503Z,32.40
2022-11-23T04:03:55.407Z,31.50
2022-11-23T04:06:44.565Z,34.70
2022-11-23T04:13:58.740Z,27.00
2022-11-23T04:16:31.262Z,28.00
2022-11-23T04:19:10.449Z,29.10
2022-11-23T04:21:42.575Z,32.30
2022-11-23T04:24:15.022Z,33.40
2022-11-23T04:26:55.375Z,37.10
2022-11-23T04:29:27.741Z,36.70
2022-11-23T04:32:47.335Z,33.50
2022-11-23T04:35:19.943Z,43.80
2022-11-23T04:42:45.361Z,27.90
2022-11-23T04:45:17.663Z,44.50
2022-11-23T04:47:49.975Z,50.60
2022-11-23T04:50:22.835Z,54.10
2022-11-23T04:53:40.720Z,55.40
2022-11-23T04:56:13.365Z,45.50
2022-11-23T04:58:46.182Z,40.60
2022-11-23T05:10:36.182Z,43.50
2022-11-23T05:17:39.016Z,29.20
2022-11-23T05:20:15.196Z,40.70
2022-11-23T05:23:21.484Z,35.60
2022-11-23T05:26:28.746Z,38.00
2022-11-23T05:33:50.031Z,30.10
2022-11-23T05:37:07.176Z,31.20
2022-11-23T05:39:41.743Z,30.00
2022-11-23T05:42:14.165Z,34.90
2022-11-23T05:44:54.433Z,37.70
2022-11-23T05:47:55.712Z,38.00
2022-11-23T05:51:18.439Z,34.00
2022-11-23T05:59:06.682Z,34.80
2022-11-23T06:02:11.499Z,43.40
2022-11-23T06:04:44.058Z,44.50
2022-11-23T06:07:27.345Z,33.60
2022-11-23T06:10:51.267Z,35.20
2022-11-23T06:14:04.664Z,28.20
2022-11-23T06:17:04.645Z,27.50
2022-11-23T06:19:47.541Z,26.10
2022-11-23T06:22:19.891Z,29.90
2022-11-23T06:25:58.997Z,37.00
2022-11-23T06:28:35.916Z,33.60
2022-11-23T06:31:09.230Z,29.90
2022-11-23T06:33:41.633Z,30.80
2022-11-23T06:36:15.806Z,34.70
2022-11-23T06:38:51.879Z,31.70
2022-11-23T06:41:32.334Z,29.30
2022-11-23T06:44:07.618Z,31.90
2022-11-23T06:46:47.838Z,39.70
2022-11-23T06:49:21.843Z,42.80
2022-11-23T06:52:13.866Z,35.20
2022-11-23T06:54:46.408Z,43.20
2022-11-23T06:57:20.545Z,65.50
2022-11-23T06:59:52.839Z,83.50
2022-11-23T07:02:28.980Z,48.70
2022-11-23T07:05:02.479Z,59.60
2022-11-23T07:07:35.993Z,77.80
2022-11-23T07:10:18.324Z,41.80
2022-11-23T07:12:53.677Z,52.00
2022-11-23T07:15:26.491Z,33.60
2022-11-23T07:17:58.715Z,42.30
2022-11-23T07:20:31.298Z,46.80
2022-11-23T07:23:05.888Z,38.50
2022-11-23T07:25:39.735Z,40.70
2022-11-23T07:28:14.431Z,43.10
2022-11-23T07:30:46.575Z,42.90
2022-11-23T07:33:20.087Z,36.90
2022-11-23T07:35:52.882Z,36.20
2022-11-23T07:38:25.807Z,37.60
2022-11-23T07:40:59.043Z,34.10
2022-11-23T07:43:45.831Z,30.70
2022-11-23T07:46:21.473Z,33.00
2022-11-23T07:49:56.521Z,32.00
2022-11-23T07:52:28.719Z,68.00
2022-11-23T07:55:01.394Z,74.40
2022-11-23T07:57:40.720Z,47.20
2022-11-23T08:00:15.286Z,59.60
2022-11-23T08:03:42.670Z,65.20
2022-11-23T08:06:15.830Z,41.90
2022-11-23T08:08:55.682Z,48.80
2022-11-23T08:11:27.852Z,38.80
2022-11-23T08:14:06.737Z,29.30
2022-11-23T08:16:38.869Z,31.00
2022-11-23T08:19:17.569Z,30.30
2022-11-23T08:26:40.865Z,31.90
2022-11-23T08:29:52.931Z,33.00
2022-11-23T08:32:26.545Z,38.60
2022-11-23T08:34:59.292Z,36.40
2022-11-23T08:37:37.685Z,33.50
2022-11-23T08:40:12.106Z,34.60
2022-11-23T08:43:01.791Z,35.60
2022-11-23T08:45:34.401Z,28.50
2022-11-23T08:49:19.146Z,43.20
2022-11-23T08:51:51.667Z,27.10
2022-11-23T08:54:24.719Z,42.50
2022-11-23T09:01:48.753Z,39.70
2022-11-23T09:04:30.919Z,34.50
2022-11-23T09:07:55.335Z,44.90
2022-11-23T09:10:33.935Z,43.30
2022-11-23T09:22:03.629Z,30.00
2022-11-23T09:24:36.149Z,26.60
2022-11-23T09:27:09.100Z,25.10
2022-11-23T09:35:33.564Z,25.80
2022-11-23T09:38:13.178Z,23.60
2022-11-23T09:42:00.592Z,25.70
2022-11-23T09:51:58.654Z,28.00
2022-11-23T09:54:34.678Z,24.60
2022-11-23T09:57:07.906Z,40.30
2022-11-23T09:59:47.259Z,28.10
2022-11-23T10:02:24.149Z,32.80
2022-11-23T10:04:57.253Z,52.70
2022-11-23T10:07:47.510Z,41.40
2022-11-23T10:10:34.962Z,31.10
2022-11-23T10:13:21.006Z,43.60
2022-11-23T10:16:14.608Z,28.90
2022-11-23T10:18:57.399Z,47.10
2022-11-23T10:21:41.861Z,28.30
2022-11-23T10:24:20.813Z,23.00
2022-11-23T10:26:53.394Z,29.40
2022-11-23T10:29:32.462Z,28.10
2022-11-23T10:32:06.723Z,28.20
2022-11-23T10:34:52.333Z,23.50
2022-11-23T10:37:25.387Z,24.30
2022-11-23T10:39:58.210Z,23.00
2022-11-23T10:42:34.850Z,25.70
2022-11-23T10:45:19.268Z,32.90
2022-11-23T11:17:03.719Z,36.60
2022-11-23T11:42:45.568Z,22.70
2022-11-23T11:49:43.303Z,25.00
2022-11-23T11:52:28.342Z,27.70
2022-11-23T12:08:42.625Z,51.50
2022-11-23T12:11:16.158Z,53.00
2022-11-23T12:39:09.918Z,24.70
2022-11-23T13:05:15.974Z,24.80
2022-11-23T13:12:59.702Z,33.70
2022-11-23T13:20:51.706Z,18.80
2022-11-23T13:23:24.316Z,24.90
2022-11-23T13:27:04.472Z,27.60
2022-11-23T13:39:02.067Z,21.10
2022-11-23T13:55:29.129Z,23.30
2022-11-23T14:02:49.665Z,25.50
2022-11-23T14:14:10.630Z,23.70
2022-11-23T14:21:49.973Z,27.90
2022-11-23T14:38:18.248Z,21.40
2022-11-23T14:45:42.606Z,23.20
2022-11-23T14:52:20.284Z,24.60
2022-11-23T14:54:53.301Z,24.60
2022-11-23T15:01:29.784Z,26.80
2022-11-23T15:26:34.710Z,34.70
2022-11-23T15:30:39.881Z,27.20
2022-11-23T15:47:27.702Z,36.90
2022-11-23T15:55:17.298Z,29.50
2022-11-23T15:58:31.970Z,30.60
2022-11-23T16:05:25.047Z,41.40
2022-11-23T16:08:51.137Z,43.60
2022-11-23T16:29:23.940Z,30.90
2022-11-23T16:36:52.940Z,45.80
2022-11-23T16:40:22.549Z,45.10
2022-11-23T16:47:30.830Z,53.30
2022-11-23T16:54:53.969Z,39.80
2022-11-23T16:57:34.925Z,37.80
2022-11-23T17:03:34.466Z,38.30
2022-11-23T17:06:08.513Z,31.00
2022-11-23T17:09:10.177Z,30.60
2022-11-23T17:11:53.384Z,29.90
2022-11-23T17:15:14.873Z,35.10
2022-11-23T17:18:01.059Z,40.50
2022-11-23T17:25:47.042Z,36.10
2022-11-23T17:28:22.375Z,29.70
2022-11-23T17:31:15.803Z,32.40
2022-11-23T17:33:50.708Z,30.80
2022-11-23T17:42:08.026Z,31.70
2022-11-23T17:45:46.023Z,29.60
2022-11-23T17:48:19.521Z,30.30
2022-11-23T17:50:51.784Z,39.60
2022-11-23T18:05:12.338Z,26.00
2022-11-23T18:08:36.522Z,28.50
2022-11-23T18:11:09.927Z,32.00
2022-11-23T18:13:50.389Z,28.90
2022-11-23T18:21:31.897Z,31.10
2022-11-23T18:24:11.009Z,28.00
2022-11-23T18:26:45.157Z,31.30
2022-11-23T18:29:23.768Z,31.70
2022-11-23T18:31:55.940Z,29.00
2022-11-23T18:34:34.341Z,29.60
2022-11-23T18:37:06.903Z,30.70
2022-11-23T18:39:45.575Z,34.80
2022-11-23T18:42:17.766Z,30.40
2022-11-23T18:44:56.404Z,30.40
2022-11-23T18:47:28.913Z,30.10
2022-11-23T18:50:09.743Z,31.00
2022-11-23T18:57:18.471Z,33.00
2022-11-23T18:59:59.527Z,31.40
2022-11-23T19:03:18.525Z,27.50
2022-11-23T19:06:42.892Z,29.00
2022-11-23T19:14:06.501Z,30.60
2022-11-23T19:16:45.498Z,43.10
2022-11-23T19:19:18.642Z,32.60
2022-11-23T19:22:00.197Z,30.90
2022-11-23T19:25:21.586Z,33.20
2022-11-23T19:28:02.929Z,30.90
2022-11-23T19:31:27.104Z,38.00
2022-11-23T19:35:53.145Z,40.90
2022-11-23T19:39:36.122Z,32.30
2022-11-23T19:42:11.077Z,31.70
2022-11-23T19:44:50.010Z,35.80
2022-11-23T19:47:23.063Z,41.90
2022-11-23T19:50:02.860Z,63.20
2022-11-23T20:11:44.832Z,35.00
2022-11-23T20:15:34.333Z,34.80
2022-11-23T20:18:06.673Z,42.00
2022-11-23T20:20:49.320Z,40.00
2022-11-23T20:32:07.093Z,35.00
2022-11-23T20:34:39.258Z,38.10
2022-11-23T20:37:18.574Z,37.50
2022-11-23T20:39:52.972Z,38.20
2022-11-23T20:42:58.160Z,38.50
2022-11-23T20:52:44.093Z,37.40
2022-11-23T20:59:08.576Z,47.50
2022-11-23T21:01:41.070Z,40.20
2022-11-23T21:04:20.570Z,41.50
2022-11-23T21:06:53.084Z,40.80
2022-11-23T21:09:31.931Z,55.80
2022-11-23T21:16:16.785Z,71.70
2022-11-23T21:18:48.935Z,53.20
2022-11-23T21:25:52.298Z,45.20
2022-11-23T21:28:24.531Z,46.60
2022-11-23T21:35:27.783Z,37.80
2022-11-23T21:38:00.429Z,39.40
2022-11-23T21:40:33.970Z,46.40
2022-11-23T21:43:06.149Z,37.40
2022-11-23T21:45:38.373Z,35.00
2022-11-23T21:48:10.681Z,32.20
2022-11-23T21:50:42.830Z,34.80
2022-11-23T21:53:15.518Z,42.10
2022-11-23T21:55:47.715Z,40.90
2022-11-23T21:58:19.822Z,37.30
2022-11-23T22:00:52.256Z,34.80
2022-11-23T22:03:24.553Z,37.40
2022-11-23T22:06:00.760Z,33.80
2022-11-23T22:08:33.540Z,35.90
2022-11-23T22:11:13.709Z,33.10
2022-11-23T22:13:46.926Z,32.10
2022-11-23T22:16:21.353Z,65.00
2022-11-23T22:18:56.077Z,62.30
2022-11-23T22:21:30.275Z,34.90
2022-11-23T22:24:03.241Z,31.40
2022-11-23T22:26:35.883Z,31.30
2022-11-23T22:29:08.371Z,32.80
2022-11-23T22:31:40.832Z,33.10
2022-11-23T22:34:15.280Z,36.80
2022-11-23T22:36:47.531Z,33.80
2022-11-23T22:39:19.885Z,31.00
2022-11-23T22:41:52.269Z,35.50
2022-11-23T22:44:24.885Z,35.60
2022-11-23T22:46:57.549Z,30.50
2022-11-23T22:49:30.024Z,30.10
2022-11-23T22:52:02.267Z,29.10
2022-11-23T22:54:34.622Z,28.70
2022-11-23T22:57:07.491Z,28.70
2022-11-23T22:59:39.973Z,28.80
2022-11-23T23:02:12.176Z,29.20
2022-11-23T23:04:44.395Z,27.40
2022-11-23T23:07:16.646Z,28.50
2022-11-23T23:09:48.720Z,28.70
2022-11-23T23:12:20.899Z,25.60
2022-11-23T23:14:54.759Z,28.30
2022-11-23T23:17:29.890Z,26.00
2022-11-23T23:20:02.089Z,27.50
2022-11-23T23:22:34.410Z,26.10
2022-11-23T23:25:08.460Z,25.80
2022-11-23T23:27:40.930Z,24.80
2022-11-23T23:30:15.513Z,26.00
2022-11-23T23:32:47.749Z,28.00
2022-11-23T23:35:20.291Z,23.00
2022-11-23T23:37:53.693Z,25.60
2022-11-23T23:40:25.882Z,23.20
2022-11-23T23:42:58.719Z,25.00
2022-11-23T23:45:30.885Z,23.10
2022-11-23T23:48:03.307Z,23.20
2022-11-23T23:50:37.816Z,23.70
2022-11-23T23:53:10.076Z,24.00
2022-11-23T23:55:42.211Z,26.20
2022-11-23T23:58:17.889Z,25.00
